Time;durP1;ratioP1;P1;durP2;ratioP2;P2;SDS_P1;SDS_P2;PMS_P1;PMS_P2;Temp;Humidity;BMP_temperature;BMP_pressure;BME280_temperature;BME280_humidity;BME280_pressure;Samples;Min_cycle;Max_cycle;Signal;HPM_P1;HPM_P2
2021/05/31 00:02:24;;;;;;;3.70;3.40;;;;;;;11.91;100.00;93056.00;4976012;28;20197;-83
2021/05/31 00:04:51;;;;;;;3.57;3.27;;;;;;;11.95;100.00;93088.72;4976493;28;20204;-83
2021/05/31 00:07:19;;;;;;;4.00;3.70;;;;;;;11.98;100.00;93132.16;4976615;28;20204;-83
2021/05/31 00:09:48;;;;;;;8.13;3.80;;;;;;;11.90;100.00;93222.84;4975922;28;20228;-83
2021/05/31 00:12:17;;;;;;;6.60;3.17;;;;;;;11.95;100.00;93416.88;4976023;28;20684;-83
2021/05/31 00:14:54;;;;;;;3.43;3.23;;;;;;;11.92;100.00;93481.34;4976284;28;20201;-84
2021/05/31 00:17:21;;;;;;;3.53;3.23;;;;;;;11.84;100.00;93505.38;4976193;28;20201;-83
2021/05/31 00:19:48;;;;;;;4.07;3.00;;;;;;;11.84;100.00;93521.97;4975728;28;20305;-84
2021/05/31 00:22:15;;;;;;;3.80;3.50;;;;;;;11.82;100.00;93570.59;4976113;28;20201;-84
2021/05/31 00:24:42;;;;;;;3.70;3.33;;;;;;;11.78;100.00;93624.72;4975364;28;20209;-84
2021/05/31 00:27:09;;;;;;;4.07;3.63;;;;;;;11.92;100.00;93626.09;4976019;28;20259;-84
2021/05/31 00:29:36;;;;;;;4.93;4.43;;;;;;;11.96;100.00;93676.44;4975806;28;20223;-84
2021/05/31 00:32:07;;;;;;;3.67;3.37;;;;;;;11.67;100.00;93744.69;4976270;28;20600;-84
2021/05/31 00:34:34;;;;;;;4.63;3.67;;;;;;;11.78;100.00;93788.66;4975538;28;20263;-84
2021/05/31 00:37:01;;;;;;;4.00;3.57;;;;;;;11.87;100.00;93841.78;4975943;28;20189;-84
2021/05/31 00:39:28;;;;;;;4.10;3.80;;;;;;;12.03;100.00;93859.56;4975498;28;20193;-84
2021/05/31 00:41:55;;;;;;;3.80;3.50;;;;;;;11.94;100.00;93912.78;4975363;28;20197;-83
2021/05/31 00:44:24;;;;;;;3.73;3.43;;;;;;;11.97;100.00;93909.69;4975410;28;20221;-84
2021/05/31 00:46:53;;;;;;;4.23;3.73;;;;;;;12.08;100.00;93940.50;4975892;28;20207;-84
2021/05/31 00:49:35;;;;;;;3.90;3.60;;;;;;;12.13;100.00;94012.56;4975325;28;20230;-84
2021/05/31 00:52:05;;;;;;;4.23;3.60;;;;;;;12.08;100.00;94072.16;4975579;28;20267;-83
2021/05/31 00:54:32;;;;;;;3.77;3.47;;;;;;;11.96;100.00;94110.78;4975537;28;20201;-83
2021/05/31 00:57:00;;;;;;;3.50;3.17;;;;;;;11.93;100.00;94200.72;4975324;28;20208;-84
2021/05/31 00:59:26;;;;;;;3.13;2.93;;;;;;;11.92;100.00;94205.19;4975257;28;20199;-84
2021/05/31 01:01:53;;;;;;;10.13;3.83;;;;;;;11.96;100.00;94221.34;4974919;28;20336;-84
2021/05/31 01:04:21;;;;;;;3.40;3.10;;;;;;;11.84;100.00;94266.00;4975580;28;20682;-84
2021/05/31 01:06:53;;;;;;;3.53;3.23;;;;;;;11.75;100.00;94298.84;4975557;28;20286;-84
2021/05/31 01:09:30;;;;;;;3.70;3.07;;;;;;;11.65;100.00;94350.13;4974958;28;20221;-84
2021/05/31 01:12:24;;;;;;;4.47;3.63;;;;;;;11.54;100.00;94411.31;4975146;28;20281;-84
2021/05/31 01:15:02;;;;;;;4.03;3.63;;;;;;;11.68;100.00;94487.56;4970645;28;20202;-84
2021/05/31 01:17:35;;;;;;;5.60;3.87;;;;;;;11.79;100.00;94529.81;4975178;28;20185;-85
2021/05/31 01:20:24;;;;;;;4.47;3.57;;;;;;;11.76;100.00;94750.50;4974605;28;20190;-84
2021/05/31 01:22:53;;;;;;;3.63;3.33;;;;;;;11.76;100.00;94795.25;4932900;28;20208;-83
2021/05/31 01:25:29;;;;;;;4.97;4.13;;;;;;;11.61;100.00;95104.16;4974771;28;20204;-84
2021/05/31 01:28:15;;;;;;;3.73;3.43;;;;;;;11.80;100.00;95192.13;4974926;28;20570;-84
2021/05/31 01:30:47;;;;;;;3.27;2.93;;;;;;;11.91;100.00;95351.44;4974845;28;20208;-84
2021/05/31 01:33:17;;;;;;;4.63;3.83;;;;;;;11.75;100.00;95363.03;4974411;28;20194;-84
2021/05/31 01:35:45;;;;;;;6.90;3.40;;;;;;;11.68;100.00;95377.13;4974433;28;20239;-84
2021/05/31 01:38:16;;;;;;;4.63;2.97;;;;;;;11.53;100.00;95385.03;4974457;28;20636;-84
2021/05/31 01:40:43;;;;;;;3.07;2.77;;;;;;;11.47;100.00;95420.81;4974689;28;20196;-83
2021/05/31 01:43:11;;;;;;;3.77;3.43;;;;;;;11.40;100.00;95460.22;4974641;28;20278;-83
2021/05/31 01:45:39;;;;;;;3.63;3.37;;;;;;;11.31;100.00;95510.47;4973924;28;20204;-84
2021/05/31 01:48:10;;;;;;;5.93;3.67;;;;;;;11.28;100.00;95606.34;4974409;28;20205;-83
2021/05/31 01:50:37;;;;;;;3.57;2.70;;;;;;;11.30;100.00;95646.47;4974310;28;20308;-83
2021/05/31 01:53:05;;;;;;;3.30;3.10;;;;;;;11.31;100.00;95665.69;4974106;28;20206;-83
2021/05/31 01:55:33;;;;;;;3.63;3.33;;;;;;;11.24;100.00;95709.47;4974031;28;20204;-83
2021/05/31 01:58:01;;;;;;;2.80;2.60;;;;;;;11.28;100.00;95697.59;4973983;28;20205;-84
2021/05/31 02:00:28;;;;;;;3.90;2.87;;;;;;;11.49;100.00;95692.47;4974245;28;20256;-84
2021/05/31 02:02:55;;;;;;;2.97;2.47;;;;;;;11.34;100.00;95702.16;4973898;28;20197;-83
2021/05/31 02:05:24;;;;;;;4.23;2.30;;;;;;;11.42;100.00;95699.44;4974337;28;20205;-83
2021/05/31 02:07:52;;;;;;;2.90;2.60;;;;;;;11.45;100.00;95719.34;4974401;28;20322;-83
2021/05/31 02:10:19;;;;;;;2.63;2.43;;;;;;;11.38;100.00;95779.75;4973788;28;20225;-84
2021/05/31 02:12:51;;;;;;;2.53;2.20;;;;;;;11.38;100.00;95841.06;4973778;28;20251;-84
2021/05/31 02:15:22;;;;;;;3.37;3.07;;;;;;;11.40;100.00;95904.88;4974220;28;20550;-84
2021/05/31 02:17:58;;;;;;;3.30;3.00;;;;;;;11.17;100.00;95951.34;4974134;28;20201;-84
2021/05/31 02:20:29;;;;;;;2.30;2.10;;;;;;;11.22;100.00;95979.75;4974148;28;20239;-84
2021/05/31 02:22:58;;;;;;;2.43;2.27;;;;;;;11.14;100.00;95986.69;4973426;28;20200;-84
2021/05/31 02:25:27;;;;;;;3.20;3.00;;;;;;;11.11;100.00;96042.25;4973744;28;20236;-84
2021/05/31 02:27:56;;;;;;;3.63;3.33;;;;;;;11.27;100.00;96082.69;4973770;28;20236;-84
2021/05/31 02:30:23;;;;;;;3.20;2.50;;;;;;;11.21;100.00;96086.00;4973527;28;20315;-84
2021/05/31 02:32:52;;;;;;;3.37;2.60;;;;;;;11.09;100.00;96085.53;4973500;28;20232;-83
2021/05/31 02:35:19;;;;;;;2.80;2.43;;;;;;;11.09;100.00;96080.25;4973541;28;20283;-84
2021/05/31 02:37:48;;;;;;;2.97;2.77;;;;;;;11.27;100.00;96090.59;4973685;28;20595;-85
2021/05/31 02:40:16;;;;;;;3.03;2.83;;;;;;;11.26;100.00;96134.50;4973276;28;20584;-84
2021/05/31 02:42:45;;;;;;;2.87;2.60;;;;;;;11.26;100.00;96152.09;4973587;28;20636;-84
2021/05/31 02:45:13;;;;;;;3.07;2.87;;;;;;;11.25;100.00;96189.91;4973214;28;20296;-84
2021/05/31 02:47:40;;;;;;;2.20;2.10;;;;;;;11.15;100.00;96187.41;4973431;28;20264;-84
2021/05/31 02:50:08;;;;;;;2.50;2.07;;;;;;;11.21;100.00;96180.69;4973053;28;20238;-84
2021/05/31 02:52:39;;;;;;;1.97;1.87;;;;;;;11.22;100.00;96188.41;4973207;28;20666;-84
2021/05/31 02:55:09;;;;;;;2.30;2.10;;;;;;;11.28;100.00;96213.25;4972958;28;20557;-85
2021/05/31 02:57:36;;;;;;;1.60;1.50;;;;;;;11.12;100.00;96256.97;4973403;28;20247;-85
2021/05/31 03:00:06;;;;;;;2.20;2.10;;;;;;;11.08;100.00;96289.00;4972949;28;20263;-84
2021/05/31 03:02:33;;;;;;;2.60;2.40;;;;;;;10.99;100.00;96332.88;4973193;28;20213;-84
2021/05/31 03:05:00;;;;;;;1.80;1.70;;;;;;;10.98;100.00;96352.28;4973058;28;20259;-83
2021/05/31 03:07:27;;;;;;;3.27;2.17;;;;;;;10.94;100.00;96358.81;4973063;28;20292;-83
2021/05/31 03:10:00;;;;;;;2.20;2.10;;;;;;;10.98;100.00;96362.81;4972976;28;20228;-84
2021/05/31 03:12:28;;;;;;;2.07;1.97;;;;;;;11.05;100.00;96374.34;4972978;28;20197;-83
2021/05/31 03:14:55;;;;;;;3.90;2.20;;;;;;;11.13;100.00;96382.25;4972961;28;20208;-83
2021/05/31 03:17:22;;;;;;;2.50;2.30;;;;;;;11.03;100.00;96393.88;4973286;28;20201;-84
2021/05/31 03:19:49;;;;;;;1.57;1.47;;;;;;;10.97;100.00;96395.31;4972989;28;20205;-85
2021/05/31 03:22:16;;;;;;;2.20;2.00;;;;;;;10.97;100.00;96416.38;4973243;28;20212;-84
2021/05/31 03:24:43;;;;;;;2.60;1.67;;;;;;;11.07;100.00;96432.03;4972685;28;20208;-84
2021/05/31 03:27:10;;;;;;;1.90;1.80;;;;;;;11.07;100.00;96446.00;4972728;28;20203;-85
2021/05/31 03:29:38;;;;;;;1.97;1.87;;;;;;;11.04;100.00;96437.59;4972235;28;20232;-84
2021/05/31 03:32:06;;;;;;;1.73;1.63;;;;;;;11.11;100.00;96428.09;4970519;28;20662;-86
2021/05/31 03:34:32;;;;;;;2.17;2.00;;;;;;;11.07;100.00;96418.88;4976806;28;20291;-86
2021/05/31 03:36:59;;;;;;;3.20;2.20;;;;;;;10.98;100.00;96435.59;4976563;28;20251;-86
2021/05/31 03:39:26;;;;;;;2.50;2.30;;;;;;;11.06;100.00;96454.88;4977203;28;20197;-86
2021/05/31 03:41:53;;;;;;;2.30;2.10;;;;;;;11.00;100.00;96454.69;4976259;28;20281;-84
2021/05/31 03:44:20;;;;;;;1.80;1.70;;;;;;;10.95;100.00;96455.97;4974721;28;20579;-83
2021/05/31 03:46:51;;;;;;;1.70;1.60;;;;;;;10.88;100.00;96448.88;4978126;28;20204;-85
2021/05/31 03:49:18;;;;;;;2.23;1.80;;;;;;;10.71;100.00;96463.72;4977484;28;20214;-84
2021/05/31 03:51:45;;;;;;;1.90;1.80;;;;;;;10.71;100.00;96475.06;4975819;28;20201;-84
2021/05/31 03:54:12;;;;;;;2.07;1.97;;;;;;;10.90;100.00;96483.72;4975782;28;20201;-85
2021/05/31 03:56:39;;;;;;;2.00;1.90;;;;;;;10.82;100.00;96484.50;4975465;28;20588;-84
2021/05/31 03:59:06;;;;;;;2.83;1.87;;;;;;;10.82;100.00;96502.09;4975351;28;20200;-82
2021/05/31 04:01:33;;;;;;;4.10;2.60;;;;;;;10.90;100.00;96521.34;4973929;28;20227;-82
2021/05/31 04:04:01;;;;;;;2.20;2.00;;;;;;;10.98;100.00;96527.66;4974235;28;20252;-83
2021/05/31 04:06:35;;;;;;;1.70;1.60;;;;;;;10.87;100.00;96523.47;4972635;28;20662;-83
2021/05/31 04:11:48;;;;;;;2.30;2.10;;;;;;;10.97;100.00;96539.16;4975231;28;20185;-83
2021/05/31 04:14:18;;;;;;;2.77;2.53;;;;;;;11.03;100.00;96552.50;4974993;28;20205;-84
2021/05/31 04:16:46;;;;;;;2.93;2.40;;;;;;;11.18;100.00;96552.75;4975636;28;20690;-83
2021/05/31 04:19:16;;;;;;;7.47;5.47;;;;;;;11.28;100.00;96563.19;4974805;28;20195;-84
2021/05/31 04:21:45;;;;;;;3.77;3.40;;;;;;;11.34;100.00;96570.47;4974968;28;20204;-83
2021/05/31 04:24:13;;;;;;;2.07;1.80;;;;;;;11.29;100.00;96594.63;4974825;28;20670;-83
2021/05/31 04:26:40;;;;;;;1.30;1.30;;;;;;;11.15;100.00;96610.94;4975559;28;20711;-83
2021/05/31 04:29:09;;;;;;;6.50;4.10;;;;;;;11.22;100.00;96621.69;4975459;28;20264;-84
2021/05/31 04:31:36;;;;;;;34.17;17.20;;;;;;;11.43;100.00;96627.44;4975870;28;20210;-82
2021/05/31 04:34:04;;;;;;;9.07;4.97;;;;;;;11.39;100.00;96629.53;4975643;28;20240;-82
2021/05/31 04:36:33;;;;;;;39.83;19.90;;;;;;;11.37;100.00;96660.47;4975593;28;20247;-83
2021/05/31 04:39:01;;;;;;;9.13;6.57;;;;;;;11.43;100.00;96677.44;4975439;28;20252;-84
2021/05/31 04:41:28;;;;;;;8.90;5.57;;;;;;;11.45;100.00;96685.19;4975790;28;20662;-84
2021/05/31 04:43:54;;;;;;;15.70;7.57;;;;;;;11.48;100.00;96692.78;4974973;28;20296;-85
2021/05/31 04:46:21;;;;;;;3.00;2.60;;;;;;;11.48;100.00;96698.03;4975225;28;20200;-85
2021/05/31 04:48:48;;;;;;;11.73;8.10;;;;;;;11.45;100.00;96728.13;4975909;28;20206;-85
2021/05/31 04:51:15;;;;;;;6.37;3.57;;;;;;;11.40;100.00;96735.66;4975490;28;20721;-84
2021/05/31 04:53:43;;;;;;;2.67;2.47;;;;;;;11.52;100.00;96730.97;4975347;28;20316;-84
2021/05/31 04:56:11;;;;;;;1.63;1.53;;;;;;;11.49;100.00;96747.88;4974324;28;20201;-84
2021/05/31 04:58:38;;;;;;;1.87;1.77;;;;;;;11.38;100.00;96767.38;4974521;28;20212;-84
2021/05/31 05:01:05;;;;;;;1.67;1.57;;;;;;;11.43;100.00;96780.09;4975016;28;20631;-83
2021/05/31 05:03:32;;;;;;;1.10;1.00;;;;;;;11.55;100.00;96784.13;4974555;28;20201;-84
2021/05/31 05:05:59;;;;;;;1.60;1.50;;;;;;;11.43;100.00;96793.25;4974576;28;20232;-84
2021/05/31 05:08:25;;;;;;;1.60;1.50;;;;;;;11.41;100.00;96801.28;4974788;28;20226;-83
2021/05/31 05:10:54;;;;;;;4.30;3.90;;;;;;;11.53;100.00;96788.72;4974538;28;20847;-83
2021/05/31 05:13:20;;;;;;;2.33;2.13;;;;;;;11.34;100.00;96799.41;4974924;28;21038;-83
2021/05/31 05:15:48;;;;;;;2.60;1.90;;;;;;;11.27;100.00;96795.72;4975409;28;20235;-83
2021/05/31 05:18:15;;;;;;;3.40;1.60;;;;;;;11.51;100.00;96801.22;4974656;28;20208;-84
2021/05/31 05:20:41;;;;;;;3.50;1.77;;;;;;;11.45;100.00;96809.72;4975027;28;20198;-83
2021/05/31 05:23:08;;;;;;;3.80;3.50;;;;;;;11.44;100.00;96765.94;4974891;28;20204;-83
2021/05/31 05:25:35;;;;;;;1.50;1.40;;;;;;;11.44;100.00;96750.16;4974521;28;20205;-83
2021/05/31 05:28:05;;;;;;;14.90;11.33;;;;;;;11.48;100.00;96759.41;4974727;28;20236;-83
2021/05/31 05:30:32;;;;;;;11.63;8.63;;;;;;;11.57;100.00;96758.50;4974593;28;20288;-83
2021/05/31 05:33:00;;;;;;;10.37;8.00;;;;;;;11.65;100.00;96752.47;4975014;28;20200;-84
2021/05/31 05:35:32;;;;;;;5.70;4.07;;;;;;;11.74;100.00;96748.06;4974211;28;20236;-83
2021/05/31 05:38:17;;;;;;;2.10;2.00;;;;;;;11.62;100.00;96736.97;4974592;28;20193;-84
2021/05/31 05:41:06;;;;;;;1.80;1.70;;;;;;;11.59;100.00;96732.81;4974669;28;20191;-84
2021/05/31 05:43:47;;;;;;;1.90;1.67;;;;;;;11.65;100.00;96744.56;4974431;28;20192;-83
2021/05/31 05:46:35;;;;;;;3.47;3.10;;;;;;;11.66;100.00;96756.72;4974639;28;20581;-83
2021/05/31 05:49:02;;;;;;;2.83;2.57;;;;;;;11.52;100.00;96765.19;4974583;28;20228;-83
2021/05/31 05:51:29;;;;;;;6.33;4.87;;;;;;;11.39;100.00;96787.44;4974459;28;20207;-83
2021/05/31 05:53:59;;;;;;;7.27;6.27;;;;;;;11.52;100.00;96775.72;4974463;28;20219;-83
2021/05/31 05:56:26;;;;;;;11.17;8.80;;;;;;;11.56;100.00;96769.97;4973152;28;20203;-83
2021/05/31 05:58:56;;;;;;;38.23;29.67;;;;;;;11.65;100.00;96763.00;4974406;28;20201;-83
2021/05/31 06:01:23;;;;;;;15.13;12.03;;;;;;;11.72;100.00;96752.69;4974591;28;20288;-83
2021/05/31 06:03:52;;;;;;;4.30;3.90;;;;;;;11.57;100.00;96755.88;4974020;28;20252;-84
2021/05/31 06:06:19;;;;;;;2.07;1.97;;;;;;;11.64;100.00;96767.44;4973951;28;20197;-83
2021/05/31 06:08:46;;;;;;;2.00;1.53;;;;;;;11.60;100.00;96765.25;4973957;28;20288;-84
2021/05/31 06:11:13;;;;;;;2.40;1.97;;;;;;;11.54;100.00;96765.88;4973937;28;20223;-84
2021/05/31 06:13:42;;;;;;;1.70;1.60;;;;;;;11.54;100.00;96769.31;4973912;28;20264;-84
2021/05/31 06:16:11;;;;;;;1.90;1.80;;;;;;;11.62;100.00;96768.56;4974203;28;20589;-83
2021/05/31 06:18:38;;;;;;;2.67;2.33;;;;;;;11.66;100.00;96762.81;4973858;28;20212;-83
2021/05/31 06:21:06;;;;;;;9.60;5.37;;;;;;;11.66;100.00;96762.00;4973845;28;20212;-83
2021/05/31 06:23:33;;;;;;;3.23;2.90;;;;;;;11.76;100.00;96772.44;4973807;28;20193;-83
2021/05/31 06:26:00;;;;;;;2.67;2.47;;;;;;;11.78;100.00;96757.34;4972279;28;20305;-83
2021/05/31 06:28:27;;;;;;;3.00;2.80;;;;;;;11.75;100.00;96768.16;4972404;28;20204;-83
2021/05/31 06:30:54;;;;;;;2.13;1.80;;;;;;;11.63;100.00;96765.75;4973766;28;20220;-83
2021/05/31 06:33:22;;;;;;;2.70;2.50;;;;;;;11.62;100.00;96764.13;4973524;28;20207;-84
2021/05/31 06:35:50;;;;;;;3.27;2.97;;;;;;;11.65;100.00;96781.41;4973424;28;20239;-83
2021/05/31 06:38:17;;;;;;;2.40;2.20;;;;;;;11.62;100.00;96773.81;4973500;28;20639;-83
2021/05/31 06:40:44;;;;;;;1.77;1.67;;;;;;;11.68;100.00;96773.22;4973586;28;20207;-83
2021/05/31 06:43:11;;;;;;;1.87;1.77;;;;;;;11.63;100.00;96834.22;4973340;28;20680;-83
2021/05/31 06:45:38;;;;;;;1.90;1.80;;;;;;;11.63;100.00;96839.47;4973359;28;20197;-83
2021/05/31 06:48:07;;;;;;;2.10;2.00;;;;;;;11.68;100.00;96817.97;4973575;28;20208;-83
2021/05/31 06:50:36;;;;;;;10.87;5.63;;;;;;;11.85;100.00;96819.78;4973701;28;20629;-84
2021/05/31 06:53:03;;;;;;;4.10;3.70;;;;;;;11.96;100.00;96808.19;4973218;28;20211;-83
2021/05/31 06:55:31;;;;;;;7.77;3.47;;;;;;;12.01;100.00;96803.28;4973089;28;20212;-84
2021/05/31 06:57:58;;;;;;;2.17;2.07;;;;;;;12.09;100.00;96802.53;4973266;28;20197;-83
2021/05/31 07:00:27;;;;;;;4.77;3.67;;;;;;;12.16;100.00;96810.59;4973252;28;20240;-84
2021/05/31 07:02:54;;;;;;;2.20;2.00;;;;;;;12.13;100.00;96817.03;4973307;28;20201;-83
2021/05/31 07:05:21;;;;;;;5.70;2.33;;;;;;;12.03;100.00;96817.13;4973107;28;20236;-84
2021/05/31 07:07:50;;;;;;;4.10;3.80;;;;;;;12.06;100.00;96816.81;4972741;28;20258;-84
2021/05/31 07:10:18;;;;;;;2.33;1.80;;;;;;;12.21;100.00;96816.25;4973278;28;20228;-84
2021/05/31 07:12:46;;;;;;;2.10;2.00;;;;;;;12.11;100.00;96816.34;4973191;28;20207;-83
2021/05/31 07:15:14;;;;;;;2.00;1.90;;;;;;;12.15;100.00;96812.41;4973007;28;20204;-83
2021/05/31 07:17:41;;;;;;;2.90;2.70;;;;;;;12.28;100.00;96804.09;4973302;28;20291;-83
2021/05/31 07:20:11;;;;;;;5.33;4.17;;;;;;;12.34;100.00;96809.59;4972856;28;20237;-83
2021/05/31 07:22:38;;;;;;;10.17;8.20;;;;;;;12.28;100.00;96818.09;4973392;28;20626;-83
2021/05/31 07:25:08;;;;;;;9.23;7.70;;;;;;;12.31;100.00;96819.59;4972845;28;20218;-83
2021/05/31 07:27:35;;;;;;;6.33;5.40;;;;;;;12.27;100.00;96834.09;4973023;28;20182;-83
2021/05/31 07:30:03;;;;;;;2.93;2.67;;;;;;;12.44;100.00;96832.38;4973066;28;20225;-83
2021/05/31 07:32:29;;;;;;;2.70;2.23;;;;;;;12.28;100.00;96838.38;4972976;28;20209;-84
2021/05/31 07:34:56;;;;;;;5.00;4.60;;;;;;;12.19;100.00;96845.38;4972615;28;20243;-83
2021/05/31 07:37:23;;;;;;;5.57;5.17;;;;;;;12.18;100.00;96841.09;4972816;28;20189;-84
2021/05/31 07:39:50;;;;;;;12.70;11.60;;;;;;;12.09;100.00;96848.13;4972646;28;20192;-83
2021/05/31 07:42:18;;;;;;;6.00;5.50;;;;;;;12.16;100.00;96836.94;4973195;28;20736;-83
2021/05/31 07:44:45;;;;;;;120.37;59.40;;;;;;;12.24;100.00;96839.66;4972661;28;20247;-84
2021/05/31 07:47:12;;;;;;;58.40;36.20;;;;;;;12.41;100.00;96822.16;4972888;28;20205;-83
2021/05/31 07:49:39;;;;;;;11.50;8.23;;;;;;;12.56;100.00;96820.56;4972322;28;20225;-84
2021/05/31 07:52:19;;;;;;;3.10;2.90;;;;;;;12.47;100.00;96824.13;4972905;28;20204;-83
2021/05/31 07:54:46;;;;;;;2.23;2.10;;;;;;;12.39;100.00;96824.91;4972641;28;20188;-83
2021/05/31 07:57:14;;;;;;;2.60;2.40;;;;;;;12.37;100.00;96835.63;4972815;28;20200;-84
2021/05/31 07:59:43;;;;;;;3.83;2.87;;;;;;;12.46;100.00;96836.50;4972377;28;20288;-84
2021/05/31 08:02:10;;;;;;;9.30;8.40;;;;;;;12.61;100.00;96826.22;4972824;28;20204;-84
2021/05/31 08:04:37;;;;;;;6.57;5.83;;;;;;;12.53;100.00;96834.06;4972479;28;20252;-83
2021/05/31 08:07:04;;;;;;;2.67;2.47;;;;;;;12.28;100.00;96833.91;4972747;28;20205;-84
2021/05/31 08:09:31;;;;;;;4.27;3.87;;;;;;;12.31;100.00;96843.34;4972376;28;20568;-84
2021/05/31 08:11:58;;;;;;;2.43;2.13;;;;;;;12.51;100.00;96836.03;4972713;28;20666;-84
2021/05/31 08:14:26;;;;;;;2.70;2.50;;;;;;;12.59;100.00;96836.91;4972305;28;20205;-84
2021/05/31 08:16:55;;;;;;;2.47;2.27;;;;;;;12.72;100.00;96848.84;4972654;28;20587;-84
2021/05/31 08:19:23;;;;;;;2.20;2.10;;;;;;;12.72;100.00;96854.09;4972658;28;20247;-84
2021/05/31 08:21:50;;;;;;;3.27;2.07;;;;;;;12.77;100.00;96847.34;4976116;28;20235;-83
2021/05/31 08:24:19;;;;;;;2.37;2.20;;;;;;;12.86;100.00;96856.16;4975725;28;20197;-82
2021/05/31 08:26:46;;;;;;;2.93;2.63;;;;;;;12.76;100.00;96866.00;4976209;28;20205;-83
2021/05/31 08:29:13;;;;;;;2.93;1.87;;;;;;;12.57;100.00;96869.66;4975922;28;20204;-84
2021/05/31 08:31:40;;;;;;;2.30;2.20;;;;;;;12.60;100.00;96878.09;4975855;28;20224;-83
2021/05/31 08:34:08;;;;;;;2.07;1.97;;;;;;;12.62;100.00;96885.88;4975707;28;20665;-84
2021/05/31 08:36:35;;;;;;;2.00;1.90;;;;;;;12.83;100.00;96890.75;4975621;28;20668;-83
2021/05/31 08:39:02;;;;;;;1.83;1.73;;;;;;;12.83;100.00;96901.31;4975287;28;20260;-83
2021/05/31 08:41:30;;;;;;;2.10;2.00;;;;;;;12.80;100.00;96899.81;4976056;28;20567;-83
2021/05/31 08:43:57;;;;;;;2.50;2.30;;;;;;;12.87;100.00;96910.56;4975467;28;20251;-83
2021/05/31 08:46:24;;;;;;;3.83;3.53;;;;;;;13.07;100.00;96917.25;4975748;28;20598;-84
2021/05/31 08:48:51;;;;;;;2.77;2.50;;;;;;;13.06;100.00;96907.69;4975779;28;20211;-84
2021/05/31 08:51:21;;;;;;;3.33;3.13;;;;;;;13.06;100.00;96909.50;4975491;28;20232;-83
2021/05/31 08:53:48;;;;;;;2.83;2.53;;;;;;;12.99;100.00;96906.69;4975437;28;20225;-84
2021/05/31 08:56:16;;;;;;;2.10;2.00;;;;;;;12.99;100.00;96919.00;4975202;28;20617;-83
2021/05/31 08:58:43;;;;;;;3.67;3.37;;;;;;;13.03;100.00;96923.03;4975639;28;20205;-83
2021/05/31 09:01:10;;;;;;;2.13;2.03;;;;;;;12.96;100.00;96922.81;4975327;28;20284;-84
2021/05/31 09:03:37;;;;;;;2.33;2.23;;;;;;;12.94;100.00;96934.50;4975245;28;20214;-84
2021/05/31 09:06:09;;;;;;;2.33;2.20;;;;;;;12.95;100.00;96933.50;4975074;28;20205;-83
2021/05/31 09:08:39;;;;;;;2.03;1.93;;;;;;;13.13;100.00;96941.34;4975128;28;20690;-83
2021/05/31 09:11:07;;;;;;;2.43;1.90;;;;;;;13.11;100.00;96940.69;4975049;28;20232;-83
2021/05/31 09:13:37;;;;;;;2.43;2.23;;;;;;;12.98;100.00;96943.75;4975129;28;20213;-83
2021/05/31 09:16:10;;;;;;;2.03;1.93;;;;;;;12.87;100.00;96947.50;4974935;28;20713;-84
2021/05/31 09:18:39;;;;;;;2.10;1.97;;;;;;;12.91;100.00;96951.47;4975014;28;20260;-83
2021/05/31 09:21:18;;;;;;;2.10;1.90;;;;;;;12.93;100.00;96944.25;4974968;28;20213;-83
2021/05/31 09:23:48;;;;;;;2.40;2.20;;;;;;;13.00;100.00;96941.81;4974924;28;20193;-83
2021/05/31 09:26:15;;;;;;;3.43;2.10;;;;;;;12.82;100.00;96936.59;4974714;28;20201;-84
2021/05/31 09:28:52;;;;;;;2.70;2.43;;;;;;;12.78;100.00;96936.09;4974762;28;20209;-84
2021/05/31 09:31:21;;;;;;;2.80;2.50;;;;;;;12.92;100.00;96939.94;4974585;28;20209;-84
2021/05/31 09:33:57;;;;;;;1.97;1.80;;;;;;;12.93;100.00;96933.69;4974668;28;20293;-84
2021/05/31 09:36:24;;;;;;;1.80;1.70;;;;;;;12.97;100.00;96928.91;4974677;28;20278;-83
2021/05/31 09:38:53;;;;;;;2.00;1.90;;;;;;;13.02;100.00;96930.13;4974606;28;20263;-84
2021/05/31 09:41:27;;;;;;;1.37;1.37;;;;;;;12.90;100.00;96920.81;4974638;28;20669;-84
2021/05/31 09:43:56;;;;;;;3.40;1.60;;;;;;;12.79;100.00;96926.34;4974842;28;20184;-83
2021/05/31 09:46:34;;;;;;;2.53;1.50;;;;;;;12.94;100.00;96935.31;4974415;28;20241;-84
2021/05/31 09:49:01;;;;;;;1.60;1.50;;;;;;;12.94;100.00;96937.97;4974746;28;20256;-83
2021/05/31 09:51:29;;;;;;;2.23;1.50;;;;;;;13.00;100.00;96945.25;4974709;28;20228;-83
2021/05/31 09:53:57;;;;;;;1.50;1.40;;;;;;;13.02;100.00;96940.66;4974262;28;20200;-83
2021/05/31 09:56:24;;;;;;;1.90;1.80;;;;;;;13.09;100.00;96949.59;4974353;28;20248;-84
2021/05/31 09:58:55;;;;;;;1.57;1.47;;;;;;;13.01;100.00;96948.72;4973895;28;20674;-84
2021/05/31 10:01:40;;;;;;;1.93;1.83;;;;;;;12.96;100.00;96953.66;4974322;28;20181;-83
2021/05/31 10:04:20;;;;;;;1.67;1.57;;;;;;;13.04;100.00;96958.97;4974015;28;20200;-82
2021/05/31 10:06:51;;;;;;;1.60;1.50;;;;;;;13.12;100.00;96955.53;4974204;28;20217;-83
2021/05/31 10:09:19;;;;;;;2.47;1.43;;;;;;;13.34;100.00;96962.13;4973830;28;20280;-84
2021/05/31 10:11:46;;;;;;;1.43;1.33;;;;;;;13.31;100.00;96960.63;4974010;28;20319;-83
2021/05/31 10:14:15;;;;;;;1.83;1.73;;;;;;;13.27;100.00;96961.94;4973855;28;20256;-83
2021/05/31 10:16:43;;;;;;;2.17;1.97;;;;;;;13.38;100.00;96963.44;4974032;28;20287;-83
2021/05/31 10:19:10;;;;;;;1.70;1.60;;;;;;;13.45;100.00;96962.66;4973789;28;20231;-83
2021/05/31 10:21:37;;;;;;;2.03;1.93;;;;;;;13.44;100.00;96961.00;4973721;28;20211;-84
2021/05/31 10:24:04;;;;;;;2.13;1.70;;;;;;;13.53;100.00;96969.78;4973754;28;20193;-83
2021/05/31 10:26:36;;;;;;;1.80;1.70;;;;;;;13.49;100.00;96969.25;4973764;28;20200;-84
2021/05/31 10:29:04;;;;;;;1.40;1.30;;;;;;;13.52;100.00;96978.69;4973472;28;20193;-84
2021/05/31 10:31:41;;;;;;;1.20;1.10;;;;;;;13.72;100.00;96979.25;4973666;28;20602;-84
2021/05/31 10:34:19;;;;;;;4.10;2.33;;;;;;;13.73;100.00;96994.13;4973568;28;20650;-84
2021/05/31 10:36:49;;;;;;;8.67;4.10;;;;;;;13.75;100.00;97016.75;4973558;28;20242;-84
2021/05/31 10:39:23;;;;;;;10.23;4.20;;;;;;;13.77;100.00;97017.41;4973295;28;20276;-83
2021/05/31 10:42:03;;;;;;;2.90;2.10;;;;;;;13.74;100.00;97030.09;4973324;28;20239;-84
2021/05/31 10:44:31;;;;;;;1.77;1.63;;;;;;;13.75;100.00;97027.31;4973429;28;20235;-84
2021/05/31 10:47:06;;;;;;;3.77;3.10;;;;;;;13.85;100.00;97036.91;4973486;28;20239;-85
2021/05/31 10:49:33;;;;;;;4.40;2.20;;;;;;;13.93;100.00;97043.06;4973536;28;20193;-85
2021/05/31 10:52:00;;;;;;;2.00;1.90;;;;;;;13.98;100.00;97045.22;4973305;28;20231;-85
2021/05/31 10:54:34;;;;;;;1.70;1.60;;;;;;;14.01;100.00;97040.44;4973142;28;20299;-84
2021/05/31 10:57:08;;;;;;;1.67;1.57;;;;;;;13.89;100.00;97047.03;4972972;28;20193;-84
2021/05/31 10:59:46;;;;;;;1.97;1.10;;;;;;;13.94;100.00;97046.53;4972275;28;20185;-84
2021/05/31 11:02:22;;;;;;;1.77;1.67;;;;;;;14.00;100.00;97045.88;4972021;28;20240;-86
2021/05/31 11:05:07;;;;;;;1.83;1.73;;;;;;;14.09;100.00;97044.09;4972467;28;20192;-86
2021/05/31 11:07:34;;;;;;;4.13;2.00;;;;;;;14.24;100.00;97050.41;4973202;28;20195;-85
2021/05/31 11:10:01;;;;;;;1.53;1.43;;;;;;;14.29;100.00;97048.09;4972317;28;20606;-85
2021/05/31 11:12:31;;;;;;;3.17;1.70;;;;;;;14.52;100.00;97056.25;4978275;28;20572;-84
2021/05/31 11:15:09;;;;;;;1.60;1.50;;;;;;;14.32;100.00;97047.78;4980541;28;20208;-85
2021/05/31 11:17:50;;;;;;;1.60;1.50;;;;;;;14.43;100.00;97050.09;4973304;28;20211;-85
2021/05/31 11:20:29;;;;;;;1.70;1.57;;;;;;;14.37;100.00;97044.63;4972664;28;20240;-85
2021/05/31 11:23:08;;;;;;;1.53;1.47;;;;;;;14.13;100.00;97037.47;4970262;28;20797;-85
2021/05/31 11:25:38;;;;;;;1.60;1.50;;;;;;;14.28;100.00;97035.88;4970820;28;20197;-86
2021/05/31 11:28:13;;;;;;;1.60;1.50;;;;;;;14.39;100.00;97030.25;4971788;28;20193;-85
2021/05/31 11:30:39;;;;;;;2.43;2.23;;;;;;;14.30;100.00;97023.28;4972609;28;20243;-85
2021/05/31 11:33:06;;;;;;;1.97;1.87;;;;;;;14.08;100.00;97011.53;4972470;28;20595;-83
2021/05/31 11:35:35;;;;;;;2.53;2.00;;;;;;;14.10;100.00;97014.84;4972904;28;20720;-85
2021/05/31 11:38:03;;;;;;;2.83;2.00;;;;;;;14.32;100.00;97010.75;4971589;28;20224;-85